»·PEaware :: DCM89 KLAS-KJAC

DCM89 :: KLAS-KJAC

FLIGHT INFORMATION

Flight Status: Arrived
Operator:
DotCom
More flights by this operator :: More flights under this callsign
Pilot: Josh T. (20631)
Aircraft: DASSAULT AVIATION FALCON 50
(FA50)
More flights by this aircraft type
Origin: KLAS McCarran Intl
United States
Destination: KJAC Jackson Hole
United States
More flights between these airports :: More routes between these airports
Route: TRALR9 MLF J9 FFU FBR BPI JAC
File this flight plan on PilotEdge
Remarks:
Altitude:
(Current/Filed)
41,000ft
Speed:
(Current/Filed)
450kts
Departed: 11-Jan-21 09:53 AM
Arrived: 11-Jan-21 11:24 AM
Distance/Time
Traveled:
495nm/1:31
Distance/Time
To Go:
Arrived

Flight Plot

Page will automatically refresh every two minutes.

Flight plan parsing failed; only flown route is shown


Map Options




Map Legend


Flown Route
Filed Route
Departure Airport
Arrival Airport
Navaid (VOR, NDB)
Fix

Horizontal Profiles

Position Reports

Time Latitude Longitude Heading Altitude Ground
Speed
11-Jan-21 09:20 36.081054 -115.171629 89 2184ft 0kts
11-Jan-21 09:21 36.081054 -115.171629 89 2184ft 0kts
11-Jan-21 09:22 36.081054 -115.171629 89 2184ft 0kts
11-Jan-21 09:23 36.081054 -115.171629 89 2184ft 0kts
11-Jan-21 09:25 36.081054 -115.171629 89 2184ft 0kts
11-Jan-21 09:26 36.081054 -115.171629 89 2184ft 0kts
11-Jan-21 09:27 36.081054 -115.171629 89 2184ft 0kts
11-Jan-21 09:28 36.081054 -115.171629 89 2184ft 0kts
11-Jan-21 09:29 36.081054 -115.171629 89 2184ft 0kts
11-Jan-21 09:30 36.081054 -115.171629 89 2184ft 0kts
11-Jan-21 09:31 36.081054 -115.171629 89 2184ft 0kts
11-Jan-21 09:32 36.081054 -115.171629 89 2184ft 0kts
11-Jan-21 09:33 36.081054 -115.171629 89 2184ft 0kts
11-Jan-21 09:34 36.081054 -115.171629 89 2184ft 0kts
11-Jan-21 09:35 36.081054 -115.171629 89 2184ft 0kts
11-Jan-21 09:36 36.081054 -115.171629 89 2184ft 0kts
11-Jan-21 09:37 36.081054 -115.171629 89 2184ft 0kts
11-Jan-21 09:38 36.081054 -115.171629 89 2184ft 0kts
11-Jan-21 09:38 36.081054 -115.171629 89 2184ft 0kts
11-Jan-21 09:40 36.081054 -115.171629 89 2184ft 0kts
11-Jan-21 09:41 36.081054 -115.171629 89 2184ft 0kts
11-Jan-21 09:42 36.081054 -115.171628 89 2184ft 0kts
11-Jan-21 09:42 36.081054 -115.171628 89 2184ft 0kts
11-Jan-21 09:43 36.081054 -115.171576 89 2184ft 1kts
11-Jan-21 09:45 36.081484 -115.169735 89 2184ft 8kts
11-Jan-21 09:46 36.082812 -115.168513 24 2184ft 8kts
11-Jan-21 09:46 36.085436 -115.167008 25 2184ft 16kts
11-Jan-21 09:47 36.089438 -115.164710 24 2184ft 15kts
11-Jan-21 09:48 36.093233 -115.162534 24 2184ft 14kts
11-Jan-21 09:49 36.096881 -115.160440 25 2184ft 14kts
11-Jan-21 09:50 36.099600 -115.158404 69 2184ft 6kts
11-Jan-21 09:51 36.099297 -115.156664 203 2184ft 4kts
11-Jan-21 09:52 36.080648 -115.167414 205 2403ft 144kts
11-Jan-21 09:53 36.042359 -115.195452 216 4801ft 183kts
11-Jan-21 09:54 35.995867 -115.248025 234 7044ft 275kts
11-Jan-21 09:55 35.926398 -115.284640 165 10559ft 298kts
11-Jan-21 09:56 35.856269 -115.232429 102 13620ft 304kts
11-Jan-21 09:57 35.863526 -115.131149 81 16643ft 303kts
11-Jan-21 09:58 35.890251 -115.040338 38 19231ft 291kts
11-Jan-21 09:59 35.952114 -114.972729 39 21419ft 300kts
11-Jan-21 10:00 36.014852 -114.902697 38 23328ft 308kts
11-Jan-21 10:01 36.079363 -114.830467 38 24940ft 316kts
11-Jan-21 10:02 36.145723 -114.755978 38 26844ft 325kts
11-Jan-21 10:03 36.213524 -114.679695 38 28607ft 332kts
11-Jan-21 10:04 36.282474 -114.601931 38 30144ft 338kts
11-Jan-21 10:05 36.352624 -114.522615 38 31470ft 343kts
11-Jan-21 10:06 36.423829 -114.441900 37 32638ft 348kts
11-Jan-21 10:07 36.495986 -114.359894 37 33652ft 353kts
11-Jan-21 10:08 36.568765 -114.276961 37 34555ft 357kts
11-Jan-21 10:09 36.642688 -114.192498 37 35327ft 362kts
11-Jan-21 10:10 36.717282 -114.107019 38 36059ft 365kts
11-Jan-21 10:11 36.792481 -114.020618 38 36689ft 368kts
11-Jan-21 10:12 36.868158 -113.933429 38 37215ft 372kts
11-Jan-21 10:13 36.944368 -113.845358 38 37723ft 374kts
11-Jan-21 10:14 37.021002 -113.756550 38 38196ft 376kts
11-Jan-21 10:15 37.097496 -113.667618 37 38802ft 371kts
11-Jan-21 10:16 37.173068 -113.579571 37 39166ft 372kts
11-Jan-21 10:17 37.249374 -113.490393 38 39372ft 376kts
11-Jan-21 10:18 37.326336 -113.400175 38 39491ft 382kts
11-Jan-21 10:19 37.408503 -113.316242 15 39486ft 378kts
11-Jan-21 10:20 37.512044 -113.288338 12 39476ft 383kts
11-Jan-21 10:21 37.616451 -113.255509 12 39474ft 388kts
11-Jan-21 10:22 37.721814 -113.221495 13 39472ft 392kts
11-Jan-21 10:23 37.827980 -113.187118 13 39472ft 394kts
11-Jan-21 10:24 37.934406 -113.152556 13 39472ft 395kts
11-Jan-21 10:25 38.040854 -113.117882 12 39472ft 395kts
11-Jan-21 10:26 38.147597 -113.083011 12 39473ft 397kts
11-Jan-21 10:27 38.254599 -113.047946 12 39480ft 397kts
11-Jan-21 10:28 38.361631 -113.012073 17 39481ft 399kts
11-Jan-21 10:29 38.463993 -112.955810 19 39500ft 400kts
11-Jan-21 10:30 38.567046 -112.900768 20 39500ft 401kts
11-Jan-21 10:31 38.669857 -112.844755 20 39500ft 402kts
11-Jan-21 10:32 38.772802 -112.788389 20 39500ft 402kts
11-Jan-21 10:33 38.875676 -112.731884 20 39501ft 403kts
11-Jan-21 10:34 38.978943 -112.674985 20 39501ft 403kts
11-Jan-21 10:35 39.082258 -112.617877 20 39501ft 404kts
11-Jan-21 10:36 39.185518 -112.560615 20 39501ft 405kts
11-Jan-21 10:37 39.289315 -112.502871 20 39503ft 405kts
11-Jan-21 10:38 39.392849 -112.445085 20 39527ft 405kts
11-Jan-21 10:39 39.496706 -112.386932 20 39529ft 406kts
11-Jan-21 10:40 39.600455 -112.328647 20 39529ft 406kts
11-Jan-21 10:41 39.704175 -112.270187 20 39530ft 406kts
11-Jan-21 10:42 39.807991 -112.211481 20 39536ft 406kts
11-Jan-21 10:43 39.911427 -112.152795 20 39544ft 406kts
11-Jan-21 10:44 40.014944 -112.093495 21 39550ft 407kts
11-Jan-21 10:45 40.118436 -112.032606 21 39553ft 407kts
11-Jan-21 10:46 40.221715 -111.971805 21 39556ft 407kts
11-Jan-21 10:47 40.316950 -111.891016 41 39562ft 418kts
11-Jan-21 10:48 40.396106 -111.778934 41 39552ft 420kts
11-Jan-21 10:49 40.477246 -111.668142 41 39526ft 421kts
11-Jan-21 10:50 40.558890 -111.557525 41 39504ft 422kts
11-Jan-21 10:51 40.640802 -111.446177 41 39501ft 423kts
11-Jan-21 10:52 40.722625 -111.334522 41 39490ft 425kts
11-Jan-21 10:53 40.804891 -111.221830 41 39477ft 426kts
11-Jan-21 10:54 40.888129 -111.110139 32 39462ft 422kts
11-Jan-21 10:55 40.999782 -111.082425 4 39076ft 418kts
11-Jan-21 10:56 41.117763 -111.066536 4 38083ft 430kts
11-Jan-21 10:57 41.237918 -111.050921 4 37089ft 436kts
11-Jan-21 10:58 41.359474 -111.035207 4 36095ft 441kts
11-Jan-21 10:59 41.481972 -111.019320 4 35102ft 445kts
11-Jan-21 11:00 41.606614 -111.003098 4 33692ft 454kts
11-Jan-21 11:01 41.733834 -110.986465 4 32203ft 464kts
11-Jan-21 11:02 41.861681 -110.969647 4 30618ft 455kts
11-Jan-21 11:03 41.987897 -110.952999 4 29118ft 456kts
11-Jan-21 11:04 42.114756 -110.936219 4 27628ft 461kts
11-Jan-21 11:05 42.243599 -110.919107 4 26133ft 468kts
11-Jan-21 11:06 42.373881 -110.901727 4 24643ft 474kts
11-Jan-21 11:07 42.506130 -110.884012 4 23150ft 479kts
11-Jan-21 11:09 42.632963 -110.866782 4 21648ft 419kts
11-Jan-21 11:10 42.741899 -110.852116 3 20119ft 382kts
11-Jan-21 11:11 42.846595 -110.838037 3 18617ft 374kts
11-Jan-21 11:12 42.949747 -110.824030 3 17121ft 371kts
11-Jan-21 11:13 43.051664 -110.810115 3 16063ft 358kts
11-Jan-21 11:14 43.147111 -110.797068 3 16048ft 333kts
11-Jan-21 11:15 43.239697 -110.784443 3 16067ft 348kts
11-Jan-21 11:16 43.341728 -110.770403 3 15334ft 386kts
11-Jan-21 11:17 43.439395 -110.750399 15 13820ft 329kts
11-Jan-21 11:18 43.512797 -110.692450 30 12631ft 282kts
11-Jan-21 11:19 43.576957 -110.640932 23 11625ft 256kts
11-Jan-21 11:20 43.640524 -110.602596 18 10737ft 245kts
11-Jan-21 11:21 43.684681 -110.639942 268 9808ft 220kts
11-Jan-21 11:22 43.665092 -110.702838 227 8107ft 144kts
11-Jan-21 11:23 43.631415 -110.725983 202 6958ft 138kts
11-Jan-21 11:24 43.604137 -110.739322 199 6454ft 17kts
11-Jan-21 11:24 43.603584 -110.738173 153 6454ft 0kts
11-Jan-21 11:26 43.603058 -110.738236 199 6454ft 5kts
11-Jan-21 11:26 43.601208 -110.739136 199 6454ft 11kts
11-Jan-21 11:27 43.599360 -110.739206 244 6454ft 5kts
11-Jan-21 11:29 43.599134 -110.739256 111 6454ft 0kts
11-Jan-21 11:29 43.599134 -110.739256 111 6454ft 0kts
11-Jan-21 11:30 43.599134 -110.739256 111 6454ft 0kts
11-Jan-21 11:31 43.599134 -110.739256 111 6454ft 0kts

Navigation Log

Ident Type
Flight plan parsing failed, navigation log unavailable